createdAt,value
2023-11-23T00:01:16.446Z,100893.38
2023-11-23T00:03:44.857Z,100889.78
2023-11-23T00:06:13.323Z,100875.06
2023-11-23T00:08:43.149Z,100880.06
2023-11-23T00:11:11.894Z,100874.78
2023-11-23T00:13:40.548Z,100867.03
2023-11-23T00:16:11.131Z,100864.31
2023-11-23T00:18:39.630Z,100861.59
2023-11-23T00:21:08.227Z,100854.84
2023-11-23T00:23:36.598Z,100864.16
2023-11-23T00:26:05.262Z,100851.91
2023-11-23T00:28:33.624Z,100839.94
2023-11-23T00:31:02.069Z,100841.00
2023-11-23T00:33:32.202Z,100835.00
2023-11-23T00:36:00.867Z,100823.03
2023-11-23T00:38:29.373Z,100818.66
2023-11-23T00:40:57.749Z,100803.75
2023-11-23T00:43:26.480Z,100806.25
2023-11-23T00:45:54.852Z,100807.25
2023-11-23T00:48:23.327Z,100816.00
2023-11-23T00:50:53.184Z,100806.53
2023-11-23T00:53:21.609Z,100815.28
2023-11-23T00:55:50.494Z,100813.69
2023-11-23T00:58:18.994Z,100819.53
2023-11-23T01:00:47.391Z,100815.28
2023-11-23T01:03:15.985Z,100801.47
2023-11-23T01:05:45.311Z,100798.97
2023-11-23T01:08:16.060Z,100784.38
2023-11-23T01:10:45.060Z,100774.88
2023-11-23T01:13:14.595Z,100775.81
2023-11-23T01:15:43.003Z,100759.41
2023-11-23T01:18:11.613Z,100755.16
2023-11-23T01:20:40.108Z,100755.25
2023-11-23T01:23:08.648Z,100746.66
2023-11-23T01:25:38.496Z,100749.19
2023-11-23T01:28:07.279Z,100744.75
2023-11-23T01:30:35.743Z,100742.13
2023-11-23T01:33:04.352Z,100739.63
2023-11-23T01:35:33.017Z,100733.66
2023-11-23T01:38:02.785Z,100733.34
2023-11-23T01:40:31.961Z,100725.53
2023-11-23T01:43:05.051Z,100736.59
2023-11-23T01:45:33.524Z,100733.84
2023-11-23T01:48:03.383Z,100719.75
2023-11-23T01:50:33.037Z,100706.00
2023-11-23T01:53:02.258Z,100697.28
2023-11-23T01:55:31.145Z,100694.75
2023-11-23T01:58:03.545Z,100706.72
2023-11-23T02:00:33.754Z,100702.59
2023-11-23T02:03:03.235Z,100698.28
2023-11-23T02:05:31.931Z,100689.00
2023-11-23T02:08:00.327Z,100674.22
2023-11-23T02:10:29.611Z,100672.25
2023-11-23T02:12:58.643Z,100675.47
2023-11-23T02:15:27.533Z,100675.31
2023-11-23T02:18:04.419Z,100668.41
2023-11-23T02:20:33.933Z,100667.34
2023-11-23T02:23:02.463Z,100673.31
2023-11-23T02:25:31.632Z,100668.28
2023-11-23T02:28:00.314Z,100664.75
2023-11-23T02:30:29.019Z,100658.53
2023-11-23T02:32:57.746Z,100664.59
2023-11-23T02:35:26.462Z,100659.59
2023-11-23T02:37:54.830Z,100644.22
2023-11-23T02:40:23.252Z,100635.47
2023-11-23T02:42:53.165Z,100631.94
2023-11-23T02:45:22.444Z,100624.75
2023-11-23T02:47:51.563Z,100614.31
2023-11-23T02:50:19.987Z,100605.75
2023-11-23T02:52:48.645Z,100594.41
2023-11-23T02:55:17.149Z,100597.97
2023-11-23T02:57:46.351Z,100602.38
2023-11-23T03:00:16.674Z,100600.69
2023-11-23T03:02:45.176Z,100585.88
2023-11-23T03:05:13.607Z,100587.50
2023-11-23T03:07:42.017Z,100578.69
2023-11-23T03:10:11.609Z,100572.50
2023-11-23T03:12:40.064Z,100570.66
2023-11-23T03:15:09.738Z,100556.69
2023-11-23T03:17:39.675Z,100552.34
2023-11-23T03:20:08.852Z,100545.28
2023-11-23T03:22:37.216Z,100543.44
2023-11-23T03:25:06.085Z,100533.53
2023-11-23T03:27:34.572Z,100542.28
2023-11-23T03:30:03.180Z,100522.13
2023-11-23T03:32:33.632Z,100514.22
2023-11-23T03:35:04.642Z,100530.38
2023-11-23T03:37:33.087Z,100525.06
2023-11-23T03:40:01.486Z,100510.13
2023-11-23T03:42:29.944Z,100510.78
2023-11-23T03:44:58.415Z,100512.31
2023-11-23T03:47:26.904Z,100504.19
2023-11-23T03:49:55.503Z,100496.94
2023-11-23T03:52:25.401Z,100493.34
2023-11-23T03:54:54.598Z,100481.81
2023-11-23T03:57:23.127Z,100480.63
2023-11-23T03:59:51.546Z,100477.09
2023-11-23T04:02:20.599Z,100467.44
2023-11-23T04:04:49.224Z,100476.00
2023-11-23T04:07:17.617Z,100470.63
2023-11-23T04:09:47.514Z,100469.47
2023-11-23T04:12:16.187Z,100451.84
2023-11-23T04:14:44.604Z,100446.63
2023-11-23T04:17:13.180Z,100453.38
2023-11-23T04:19:41.869Z,100438.56
2023-11-23T04:22:10.298Z,100430.66
2023-11-23T04:24:40.610Z,100412.50
2023-11-23T04:27:11.086Z,100416.50
2023-11-23T04:29:39.620Z,100405.06
2023-11-23T04:32:09.671Z,100404.81
2023-11-23T04:34:38.179Z,100397.00
2023-11-23T04:37:07.126Z,100392.34
2023-11-23T04:39:35.628Z,100379.13
2023-11-23T04:42:04.011Z,100364.97
2023-11-23T04:44:33.845Z,100358.72
2023-11-23T04:47:02.260Z,100352.50
2023-11-23T04:49:30.687Z,100355.69
2023-11-23T04:51:59.209Z,100346.16
2023-11-23T04:54:27.714Z,100346.91
2023-11-23T04:56:56.452Z,100332.00
2023-11-23T04:59:24.850Z,100331.91
2023-11-23T05:01:54.774Z,100328.34
2023-11-23T05:04:23.439Z,100322.19
2023-11-23T05:09:53.254Z,100305.59
2023-11-23T05:12:21.690Z,100308.03
2023-11-23T05:14:50.173Z,100307.97
2023-11-23T05:17:20.062Z,100303.75
2023-11-23T05:19:48.459Z,100296.41
2023-11-23T05:22:16.890Z,100297.03
2023-11-23T05:24:45.365Z,100286.41
2023-11-23T05:27:14.159Z,100281.94
2023-11-23T05:29:42.665Z,100276.91
2023-11-23T05:32:11.118Z,100284.28
2023-11-23T05:34:40.921Z,100270.09
2023-11-23T05:37:09.346Z,100268.44
2023-11-23T05:39:43.112Z,100270.84
2023-11-23T05:42:12.708Z,100272.34
2023-11-23T05:44:41.372Z,100264.13
2023-11-23T05:47:09.709Z,100279.97
2023-11-23T05:49:38.790Z,100274.56
2023-11-23T05:52:09.861Z,100265.69
2023-11-23T05:54:38.796Z,100263.06
2023-11-23T05:57:07.573Z,100257.84
2023-11-23T05:59:36.189Z,100261.31
2023-11-23T06:02:07.085Z,100258.72
2023-11-23T06:04:36.191Z,100264.69
2023-11-23T06:07:04.943Z,100261.03
2023-11-23T06:09:35.000Z,100261.75
2023-11-23T06:12:04.064Z,100252.06
2023-11-23T06:14:32.435Z,100259.00
2023-11-23T06:17:01.114Z,100256.94
2023-11-23T06:19:29.673Z,100242.06
2023-11-23T06:21:58.160Z,100244.50
2023-11-23T06:24:26.605Z,100238.34
2023-11-23T06:26:56.486Z,100228.34
2023-11-23T06:29:25.033Z,100230.84
2023-11-23T06:31:54.919Z,100231.50
2023-11-23T06:34:24.059Z,100232.25
2023-11-23T06:36:52.569Z,100226.91
2023-11-23T06:39:25.425Z,100223.28
2023-11-23T06:41:57.174Z,100214.50
2023-11-23T06:44:26.595Z,100214.38
2023-11-23T06:46:55.544Z,100208.97
2023-11-23T06:49:24.243Z,100207.09
2023-11-23T06:51:53.346Z,100202.72
2023-11-23T06:54:21.876Z,100200.91
2023-11-23T06:56:50.360Z,100203.31
2023-11-23T06:59:21.337Z,100195.28
2023-11-23T07:01:49.914Z,100192.66
2023-11-23T07:04:18.699Z,100187.34
2023-11-23T07:06:47.093Z,100187.03
2023-11-23T07:09:15.800Z,100182.56
2023-11-23T07:11:45.892Z,100181.59
2023-11-23T07:14:14.348Z,100188.31
2023-11-23T07:16:44.581Z,100181.00
2023-11-23T07:19:13.621Z,100177.03
2023-11-23T07:21:42.027Z,100180.94
2023-11-23T07:24:11.501Z,100177.81
2023-11-23T07:26:40.106Z,100179.00
2023-11-23T07:29:10.053Z,100182.13
2023-11-23T07:31:42.022Z,100176.50
2023-11-23T07:34:12.235Z,100172.00
2023-11-23T07:36:41.617Z,100169.47
2023-11-23T07:39:10.269Z,100163.28
2023-11-23T07:41:39.425Z,100167.47
2023-11-23T07:44:08.232Z,100159.53
2023-11-23T07:46:37.249Z,100163.59
2023-11-23T07:49:06.832Z,100147.78
2023-11-23T07:51:36.676Z,100146.53
2023-11-23T07:54:05.297Z,100141.91
2023-11-23T07:56:35.525Z,100150.63
2023-11-23T07:59:03.963Z,100159.94
2023-11-23T08:01:32.456Z,100148.16
2023-11-23T08:04:01.773Z,100147.75
2023-11-23T08:06:30.278Z,100143.13
2023-11-23T08:09:00.368Z,100129.09
2023-11-23T08:11:29.136Z,100114.84
2023-11-23T08:13:57.552Z,100112.94
2023-11-23T08:16:26.271Z,100112.72
2023-11-23T08:18:54.765Z,100110.50
2023-11-23T08:21:24.274Z,100101.59
2023-11-23T08:23:53.246Z,100095.91
2023-11-23T08:26:23.866Z,100098.22
2023-11-23T08:28:52.320Z,100110.88
2023-11-23T08:31:21.726Z,100101.94
2023-11-23T08:33:50.246Z,100093.84
2023-11-23T08:36:18.872Z,100098.56
2023-11-23T08:38:48.372Z,100096.53
2023-11-23T08:41:18.241Z,100087.38
2023-11-23T08:43:48.986Z,100081.56
2023-11-23T08:46:17.433Z,100083.25
2023-11-23T08:48:46.243Z,100092.31
2023-11-23T08:51:15.278Z,100094.72
2023-11-23T08:53:43.779Z,100096.06
2023-11-23T08:56:14.603Z,100085.44
2023-11-23T08:58:43.719Z,100093.94
2023-11-23T09:01:13.744Z,100081.31
2023-11-23T09:03:42.264Z,100075.69
2023-11-23T09:06:11.372Z,100074.53
2023-11-23T09:08:41.687Z,100076.00
2023-11-23T09:11:10.320Z,100077.44
2023-11-23T09:13:39.243Z,100072.91
2023-11-23T09:16:09.092Z,100068.25
2023-11-23T09:18:39.142Z,100069.69
2023-11-23T09:21:08.186Z,100058.84
2023-11-23T09:23:36.855Z,100056.00
2023-11-23T09:26:06.260Z,100031.28
2023-11-23T09:28:34.799Z,100054.19
2023-11-23T09:31:04.148Z,100020.69
2023-11-23T09:33:32.976Z,100028.06
2023-11-23T09:36:03.990Z,100008.34
2023-11-23T09:38:32.584Z,100008.00
2023-11-23T09:41:04.234Z,100016.16
2023-11-23T09:43:33.235Z,100011.22
2023-11-23T09:46:04.038Z,100006.31
2023-11-23T09:48:36.495Z,99992.94
2023-11-23T09:51:07.210Z,100010.03
2023-11-23T09:53:38.252Z,99995.06
2023-11-23T09:56:07.834Z,100011.56
2023-11-23T09:58:36.310Z,99991.13
2023-11-23T10:01:05.704Z,99966.38
2023-11-23T10:03:36.412Z,99964.38
2023-11-23T10:06:06.773Z,99954.31
2023-11-23T10:08:38.562Z,99949.88
2023-11-23T10:11:08.074Z,99936.47
2023-11-23T10:13:36.472Z,99929.31
2023-11-23T10:16:05.947Z,99930.25
2023-11-23T10:18:38.605Z,99913.28
2023-11-23T10:21:13.096Z,99907.06
2023-11-23T10:23:44.763Z,99908.47
2023-11-23T10:26:13.259Z,99900.31
2023-11-23T10:28:42.674Z,99908.66
2023-11-23T10:31:13.907Z,99892.38
2023-11-23T10:33:44.128Z,99880.63
2023-11-23T10:36:14.678Z,99875.00
2023-11-23T10:38:44.963Z,99864.78
2023-11-23T10:41:16.039Z,99860.22
2023-11-23T10:43:47.339Z,99846.44
2023-11-23T10:46:17.265Z,99844.84
2023-11-23T10:48:48.161Z,99824.91
2023-11-23T10:51:18.486Z,99825.78
2023-11-23T10:53:47.044Z,99811.94
2023-11-23T10:56:20.471Z,99805.16
2023-11-23T10:58:52.281Z,99810.59
2023-11-23T11:01:24.549Z,99783.72
2023-11-23T11:03:53.571Z,99779.84
2023-11-23T11:06:24.563Z,99792.34
2023-11-23T11:08:53.271Z,99757.28
2023-11-23T11:11:23.927Z,99757.56
2023-11-23T11:14:02.641Z,99757.00
2023-11-23T11:16:35.353Z,99745.50
2023-11-23T11:19:08.370Z,99756.19
2023-11-23T11:21:45.574Z,99755.75
2023-11-23T11:24:21.802Z,99729.16
2023-11-23T11:26:51.256Z,99745.22
2023-11-23T11:29:20.396Z,99738.84
2023-11-23T11:31:50.574Z,99737.72
2023-11-23T11:34:20.780Z,99734.97
2023-11-23T11:37:00.115Z,99740.22
2023-11-23T11:39:32.982Z,99773.63
2023-11-23T11:42:02.680Z,99722.31
2023-11-23T11:44:31.497Z,99747.97
2023-11-23T11:47:00.034Z,99741.75
2023-11-23T11:49:29.045Z,99726.63
2023-11-23T11:51:59.310Z,99712.75
2023-11-23T11:54:27.890Z,99712.75
2023-11-23T11:56:56.441Z,99716.94
2023-11-23T11:59:30.310Z,99726.34
2023-11-23T12:01:59.506Z,99701.66
2023-11-23T12:04:28.130Z,99685.72
2023-11-23T12:06:58.237Z,99695.28
2023-11-23T12:09:34.847Z,99690.53
2023-11-23T12:12:12.041Z,99676.69
2023-11-23T12:14:40.831Z,99689.03
2023-11-23T12:17:12.023Z,99707.75
2023-11-23T12:19:53.161Z,99685.84
2023-11-23T12:22:25.718Z,99687.78
2023-11-23T12:24:57.943Z,99695.28
2023-11-23T12:27:28.295Z,99681.44
2023-11-23T12:29:56.868Z,99673.81
2023-11-23T12:32:25.536Z,99676.72
2023-11-23T12:34:54.521Z,99687.25
2023-11-23T12:37:23.557Z,99677.00
2023-11-23T12:39:53.024Z,99678.38
2023-11-23T12:42:24.345Z,99649.28
2023-11-23T12:44:52.900Z,99646.53
2023-11-23T12:47:22.929Z,99642.38
2023-11-23T12:49:52.855Z,99641.56
2023-11-23T12:52:21.346Z,99643.75
2023-11-23T12:54:49.724Z,99635.72
2023-11-23T12:57:18.238Z,99645.28
2023-11-23T12:59:48.036Z,99636.53
2023-11-23T13:02:16.591Z,99622.84
2023-11-23T13:04:45.285Z,99636.56
2023-11-23T13:07:14.912Z,99614.41
2023-11-23T13:09:43.366Z,99621.22
2023-11-23T13:12:11.882Z,99609.16
2023-11-23T13:14:40.608Z,99605.28
2023-11-23T13:17:11.137Z,99592.69
2023-11-23T13:19:43.558Z,99595.59
2023-11-23T13:22:12.778Z,99586.19
2023-11-23T13:24:41.492Z,99583.72
2023-11-23T13:27:10.454Z,99589.38
2023-11-23T13:29:39.217Z,99580.94
2023-11-23T13:32:11.885Z,99566.41
2023-11-23T13:34:40.490Z,99562.53
2023-11-23T13:37:10.487Z,99548.53
2023-11-23T13:39:39.711Z,99542.44
2023-11-23T13:42:08.319Z,99540.63
2023-11-23T13:44:36.848Z,99541.19
2023-11-23T13:47:08.404Z,99538.84
2023-11-23T13:49:39.542Z,99519.44
2023-11-23T13:52:11.544Z,99514.31
2023-11-23T13:54:40.635Z,99519.03
2023-11-23T13:57:09.225Z,99514.47
2023-11-23T13:59:37.676Z,99517.22
2023-11-23T14:02:07.446Z,99512.81
2023-11-23T14:04:37.607Z,99502.84
2023-11-23T14:07:07.236Z,99522.94
2023-11-23T14:09:35.654Z,99516.13
2023-11-23T14:12:05.142Z,99514.47
2023-11-23T14:14:33.648Z,99518.63
2023-11-23T14:17:02.197Z,99520.31
2023-11-23T14:19:30.627Z,99506.19
2023-11-23T14:22:02.162Z,99510.47
2023-11-23T14:24:31.383Z,99515.84
2023-11-23T14:26:59.787Z,99513.63
2023-11-23T14:29:28.304Z,99513.91
2023-11-23T14:31:56.794Z,99508.34
2023-11-23T14:34:25.471Z,99504.19
2023-11-23T14:36:56.693Z,99495.03
2023-11-23T14:39:29.184Z,99501.66
2023-11-23T14:41:58.426Z,99488.22
2023-11-23T14:44:26.951Z,99490.28
2023-11-23T14:46:55.832Z,99483.34
2023-11-23T14:49:24.749Z,99472.81
2023-11-23T14:51:54.502Z,99485.81
2023-11-23T14:54:32.061Z,99460.84
2023-11-23T14:57:09.223Z,99448.66
2023-11-23T14:59:38.402Z,99439.38
2023-11-23T15:02:08.251Z,99428.16
2023-11-23T15:04:36.991Z,99437.03
2023-11-23T15:07:05.777Z,99423.56
2023-11-23T15:09:34.460Z,99425.91
2023-11-23T15:12:03.863Z,99419.00
2023-11-23T15:14:33.947Z,99413.44
2023-11-23T15:17:02.753Z,99410.78
2023-11-23T15:19:35.900Z,99402.72
2023-11-23T15:22:07.623Z,99383.31
2023-11-23T15:24:36.772Z,99405.63
2023-11-23T15:27:08.683Z,99386.22
2023-11-23T15:29:38.819Z,99379.78
2023-11-23T15:32:08.570Z,99375.38
2023-11-23T15:34:37.031Z,99369.84
2023-11-23T15:37:06.117Z,99368.06
2023-11-23T15:39:34.887Z,99348.28
2023-11-23T15:42:04.668Z,99350.53
2023-11-23T15:44:33.164Z,99344.19
2023-11-23T15:47:03.861Z,99345.19
2023-11-23T15:49:32.443Z,99323.81
2023-11-23T15:52:01.041Z,99326.06
2023-11-23T15:54:29.448Z,99324.72
2023-11-23T15:56:58.705Z,99315.97
2023-11-23T15:59:27.334Z,99308.53
2023-11-23T16:01:55.916Z,99308.66
2023-11-23T16:04:27.226Z,99313.78
2023-11-23T16:06:56.177Z,99308.66
2023-11-23T16:09:25.695Z,99306.03
2023-11-23T16:11:54.195Z,99293.84
2023-11-23T16:14:22.736Z,99301.44
2023-11-23T16:16:51.597Z,99280.25
2023-11-23T16:19:21.253Z,99283.88
2023-11-23T16:21:53.231Z,99284.84
2023-11-23T16:24:21.960Z,99277.75
2023-11-23T16:26:51.120Z,99261.53
2023-11-23T16:29:19.712Z,99269.44
2023-11-23T16:31:48.247Z,99253.63
2023-11-23T16:34:18.197Z,99238.50
2023-11-23T16:36:48.024Z,99236.69
2023-11-23T16:39:19.807Z,99234.75
2023-11-23T16:41:48.378Z,99235.59
2023-11-23T16:44:17.707Z,99236.84
2023-11-23T16:46:47.133Z,99236.25
2023-11-23T16:49:16.618Z,99236.25
2023-11-23T16:51:45.244Z,99229.34
2023-11-23T16:54:15.896Z,99233.31
2023-11-23T16:56:45.864Z,99223.47
2023-11-23T16:59:14.444Z,99236.63
2023-11-23T17:01:44.832Z,99226.16
2023-11-23T17:04:13.445Z,99220.28
2023-11-23T17:06:43.518Z,99226.00
2023-11-23T17:09:12.632Z,99234.94
2023-11-23T17:11:41.056Z,99204.66
2023-11-23T17:14:12.747Z,99198.28
2023-11-23T17:16:41.809Z,99205.50
2023-11-23T17:19:14.055Z,99185.09
2023-11-23T17:21:47.246Z,99181.63
2023-11-23T17:24:16.454Z,99164.69
2023-11-23T17:26:45.155Z,99163.84
2023-11-23T17:29:15.244Z,99154.47
2023-11-23T17:31:45.417Z,99141.44
2023-11-23T17:34:14.178Z,99112.63
2023-11-23T17:36:42.867Z,99110.66
2023-11-23T17:39:17.201Z,99124.34
2023-11-23T17:41:46.861Z,99105.91
2023-11-23T17:44:17.170Z,99098.00
2023-11-23T17:46:46.098Z,99073.97
2023-11-23T17:49:17.529Z,99060.97
2023-11-23T17:51:46.578Z,99047.28
2023-11-23T17:54:16.231Z,99038.72
2023-11-23T17:56:45.744Z,99045.66
2023-11-23T17:59:25.824Z,99047.50
2023-11-23T18:02:05.497Z,99031.19
2023-11-23T18:04:34.181Z,99027.59
2023-11-23T18:07:03.936Z,99022.72
2023-11-23T18:09:33.615Z,99001.31
2023-11-23T18:12:04.510Z,98987.78
2023-11-23T18:14:33.576Z,98984.53
2023-11-23T18:17:04.292Z,99006.63
2023-11-23T18:19:34.167Z,98985.88
2023-11-23T18:22:03.156Z,98980.44
2023-11-23T18:24:31.984Z,98972.19
2023-11-23T18:27:03.224Z,98963.81
2023-11-23T18:29:31.870Z,98955.88
2023-11-23T18:32:00.359Z,98962.47
2023-11-23T18:34:30.379Z,98941.19
2023-11-23T18:36:59.522Z,98927.69
2023-11-23T18:39:28.732Z,98922.91
2023-11-23T18:41:57.644Z,98929.16
2023-11-23T18:44:26.066Z,98917.97
2023-11-23T18:46:55.973Z,98906.09
2023-11-23T18:49:29.384Z,98907.91
2023-11-23T18:51:59.670Z,98895.06
2023-11-23T18:54:28.374Z,98867.84
2023-11-23T18:56:57.189Z,98869.16
2023-11-23T18:59:25.863Z,98870.16
2023-11-23T19:01:55.848Z,98873.78
2023-11-23T19:04:24.637Z,98857.97
2023-11-23T19:06:56.176Z,98853.03
2023-11-23T19:09:28.793Z,98837.19
2023-11-23T19:11:58.409Z,98848.91
2023-11-23T19:14:27.402Z,98846.44
2023-11-23T19:16:56.375Z,98837.53
2023-11-23T19:19:25.348Z,98821.69
2023-11-23T19:21:54.510Z,98824.47
2023-11-23T19:24:24.627Z,98815.75
2023-11-23T19:26:55.092Z,98834.03
2023-11-23T19:29:34.926Z,98799.56
2023-11-23T19:32:09.047Z,98797.94
2023-11-23T19:34:38.422Z,98789.03
2023-11-23T19:37:07.620Z,98793.66
2023-11-23T19:39:37.270Z,98803.34
2023-11-23T19:42:09.334Z,98783.75
2023-11-23T19:44:38.502Z,98775.84
2023-11-23T19:47:07.627Z,98779.16
2023-11-23T19:49:36.641Z,98780.78
2023-11-23T19:52:14.465Z,98775.53
2023-11-23T19:54:43.947Z,98766.44
2023-11-23T19:57:17.007Z,98755.41
2023-11-23T19:59:47.611Z,98759.69
2023-11-23T20:02:16.888Z,98738.25
2023-11-23T20:04:46.630Z,98722.41
2023-11-23T20:07:15.073Z,98726.06
2023-11-23T20:09:44.578Z,98717.94
2023-11-23T20:12:15.297Z,98703.31
2023-11-23T20:14:43.870Z,98713.84
2023-11-23T20:17:12.412Z,98700.38
2023-11-23T20:19:48.671Z,98697.06
2023-11-23T20:22:17.692Z,98672.38
2023-11-23T20:24:47.535Z,98671.38
2023-11-23T20:27:17.791Z,98674.19
2023-11-23T20:29:46.847Z,98675.00
2023-11-23T20:32:15.601Z,98652.75
2023-11-23T20:34:45.823Z,98667.75
2023-11-23T20:37:14.773Z,98630.84
2023-11-23T20:39:43.438Z,98632.47
2023-11-23T20:42:12.754Z,98626.66
2023-11-23T20:44:45.084Z,98635.88
2023-11-23T20:47:13.725Z,98607.84
2023-11-23T20:49:42.161Z,98600.47
2023-11-23T20:52:11.204Z,98626.50
2023-11-23T20:54:39.815Z,98592.88
2023-11-23T20:57:09.322Z,98591.22
2023-11-23T20:59:38.394Z,98585.59
2023-11-23T21:02:10.109Z,98602.59
2023-11-23T21:04:39.347Z,98572.91
2023-11-23T21:07:09.044Z,98545.97
2023-11-23T21:09:38.445Z,98566.66
2023-11-23T21:12:14.885Z,98557.41
2023-11-23T21:14:50.452Z,98551.66
2023-11-23T21:17:20.451Z,98549.31
2023-11-23T21:19:49.266Z,98546.50
2023-11-23T21:22:18.598Z,98521.94
2023-11-23T21:24:47.192Z,98513.03
2023-11-23T21:27:16.371Z,98521.25
2023-11-23T21:29:44.936Z,98511.84
2023-11-23T21:32:16.680Z,98496.84
2023-11-23T21:34:47.703Z,98487.59
2023-11-23T21:37:16.967Z,98481.31
2023-11-23T21:39:45.886Z,98489.53
2023-11-23T21:42:15.925Z,98491.81
2023-11-23T21:44:44.315Z,98482.88
2023-11-23T21:47:12.767Z,98472.06
2023-11-23T21:49:42.406Z,98490.00
2023-11-23T21:52:13.492Z,98475.09
2023-11-23T21:54:50.214Z,98476.94
2023-11-23T21:57:22.845Z,98485.56
2023-11-23T21:59:51.637Z,98479.13
2023-11-23T22:02:20.283Z,98471.72
2023-11-23T22:04:48.777Z,98455.81
2023-11-23T22:07:18.642Z,98477.94
2023-11-23T22:09:47.169Z,98471.03
2023-11-23T22:12:15.812Z,98456.19
2023-11-23T22:14:44.483Z,98466.25
2023-11-23T22:17:13.822Z,98458.72
2023-11-23T22:19:43.718Z,98441.63
2023-11-23T22:22:12.776Z,98445.91
2023-11-23T22:24:44.540Z,98438.13
2023-11-23T22:27:13.492Z,98445.91
2023-11-23T22:29:42.380Z,98452.53
2023-11-23T22:32:11.716Z,98441.50
2023-11-23T22:34:40.888Z,98442.34
2023-11-23T22:37:10.089Z,98441.44
2023-11-23T22:39:38.932Z,98429.22
2023-11-23T22:42:16.184Z,98426.94
2023-11-23T22:44:50.358Z,98435.69
2023-11-23T22:47:19.633Z,98422.69
2023-11-23T22:49:50.589Z,98427.94
2023-11-23T22:52:20.560Z,98424.31
2023-11-23T22:54:49.256Z,98432.03
2023-11-23T22:57:19.171Z,98441.16
2023-11-23T22:59:47.614Z,98439.88
2023-11-23T23:02:16.351Z,98451.06
2023-11-23T23:04:46.349Z,98447.44
2023-11-23T23:07:14.860Z,98455.16
2023-11-23T23:09:43.413Z,98464.53
2023-11-23T23:12:12.038Z,98456.06
2023-11-23T23:14:41.900Z,98475.66
2023-11-23T23:17:10.443Z,98481.25
2023-11-23T23:19:38.893Z,98485.94
2023-11-23T23:22:16.944Z,98487.63
2023-11-23T23:24:52.683Z,98495.59
2023-11-23T23:27:21.270Z,98499.41
2023-11-23T23:29:52.098Z,98507.00
2023-11-23T23:32:20.499Z,98491.56
2023-11-23T23:34:50.259Z,98478.53
2023-11-23T23:37:19.229Z,98488.56
2023-11-23T23:39:48.657Z,98483.75
2023-11-23T23:42:17.477Z,98480.63
2023-11-23T23:44:46.960Z,98482.63
2023-11-23T23:47:16.809Z,98501.84
2023-11-23T23:49:45.623Z,98501.41
2023-11-23T23:52:14.036Z,98497.47
2023-11-23T23:54:43.103Z,98500.25
2023-11-23T23:57:11.680Z,98498.97
2023-11-23T23:59:41.633Z,98507.91
